createdAt,value
2023-10-05T06:22:08.609Z,13.36
2023-10-05T06:25:11.479Z,13.62
2023-10-05T06:28:14.958Z,13.88
2023-10-05T06:31:17.577Z,14.16
2023-10-05T06:34:20.245Z,14.02
2023-10-05T06:37:27.586Z,13.94
2023-10-05T06:51:03.117Z,13.66
2023-10-05T06:54:05.846Z,13.78
2023-10-05T06:57:08.517Z,13.96
2023-10-05T07:00:16.666Z,14.05
2023-10-05T07:03:21.579Z,14.00
2023-10-05T07:25:00.497Z,13.90
2023-10-05T07:28:04.714Z,13.95
2023-10-05T07:31:07.254Z,14.00
2023-10-05T07:34:09.877Z,14.28
2023-10-05T07:37:12.908Z,14.47
2023-10-05T07:40:16.832Z,14.50
2023-10-05T07:43:19.499Z,14.63
2023-10-05T07:46:22.140Z,14.71
2023-10-05T07:49:25.553Z,14.66
2023-10-05T07:52:28.192Z,14.63
2023-10-05T07:55:32.296Z,14.73
2023-10-05T07:58:34.913Z,14.95
2023-10-05T08:01:37.598Z,14.80
2023-10-05T08:04:42.633Z,14.76
2023-10-05T08:07:46.495Z,14.74
2023-10-05T08:10:50.361Z,14.81
2023-10-05T08:13:53.405Z,14.80
2023-10-05T08:39:26.711Z,14.41
2023-10-05T08:42:31.771Z,14.31
2023-10-05T08:45:36.051Z,14.29
2023-10-05T08:48:39.105Z,14.30
2023-10-05T09:02:29.258Z,13.99
2023-10-05T09:05:34.611Z,13.97
2023-10-05T09:37:29.049Z,13.67
2023-10-05T09:40:32.833Z,13.71
2023-10-05T09:43:39.579Z,13.80
2023-10-05T09:56:29.349Z,13.97
2023-10-05T09:59:43.098Z,14.04
2023-10-05T10:02:46.593Z,14.10
2023-10-05T10:05:53.271Z,14.09
2023-10-05T11:09:53.801Z,13.85
2023-10-05T11:12:58.355Z,13.95
2023-10-05T11:16:01.688Z,14.04
2023-10-05T11:19:15.379Z,14.29
2023-10-05T11:22:31.349Z,14.49
2023-10-05T11:25:48.620Z,14.79
2023-10-05T11:28:58.777Z,14.85
2023-10-05T11:32:20.300Z,14.61
2023-10-05T11:35:42.048Z,14.58
2023-10-05T11:38:45.915Z,14.75
2023-10-05T11:41:50.433Z,14.88
2023-10-05T11:44:57.271Z,14.87
2023-10-05T11:48:01.105Z,15.37
2023-10-05T11:51:10.931Z,15.64
2023-10-05T11:54:16.348Z,15.55
2023-10-05T11:57:21.377Z,15.38
2023-10-05T12:00:23.989Z,15.26
2023-10-05T12:03:27.570Z,15.18
2023-10-05T12:10:11.096Z,16.39
2023-10-05T12:13:16.804Z,16.30
2023-10-05T12:16:19.930Z,16.06
2023-10-05T12:19:29.581Z,15.70
2023-10-05T12:22:34.809Z,15.20
2023-10-05T12:25:38.823Z,15.01
2023-10-05T12:28:42.783Z,14.93
2023-10-05T12:31:47.042Z,14.95
2023-10-05T12:34:50.211Z,15.07
2023-10-05T12:37:57.043Z,15.29
2023-10-05T12:41:13.856Z,15.54
2023-10-05T12:44:16.814Z,15.62
2023-10-05T12:47:19.422Z,15.49
2023-10-05T12:50:22.299Z,15.83
2023-10-05T12:53:24.912Z,16.17
2023-10-05T13:00:23.214Z,17.49
2023-10-05T13:03:29.226Z,17.65
2023-10-05T13:06:32.047Z,17.23
2023-10-05T13:09:36.078Z,17.34
2023-10-05T13:12:38.577Z,17.37
2023-10-05T13:15:42.446Z,17.06
2023-10-05T13:18:45.258Z,16.77
2023-10-05T13:23:01.599Z,16.54
2023-10-05T15:14:43.438Z,15.99
2023-10-05T15:19:40.685Z,16.23
2023-10-05T15:22:44.784Z,16.15
2023-10-05T15:25:49.941Z,16.05
2023-10-05T15:28:52.502Z,15.93
